sensor_id;sensor_type;location;lat;lon;timestamp;noise_LAeq;noise_LA_min;noise_LA_max;noise_LA01;noise_LA95
70740;Laerm;58330;51.888;11.052;2023-02-08T00:01:15;36.27;34.65;37.82;;
70740;Laerm;58330;51.888;11.052;2023-02-08T00:03:41;36.30;34.73;37.64;;
70740;Laerm;58330;51.888;11.052;2023-02-08T00:06:08;36.33;34.74;37.58;;
70740;Laerm;58330;51.888;11.052;2023-02-08T00:08:33;36.24;34.62;38.15;;
70740;Laerm;58330;51.888;11.052;2023-02-08T00:10:59;36.14;34.72;37.55;;
70740;Laerm;58330;51.888;11.052;2023-02-08T00:13:25;36.43;34.57;40.96;;
70740;Laerm;58330;51.888;11.052;2023-02-08T00:15:52;36.08;34.20;37.40;;
70740;Laerm;58330;51.888;11.052;2023-02-08T00:18:17;36.62;34.79;43.84;;
70740;Laerm;58330;51.888;11.052;2023-02-08T00:20:43;36.06;34.59;37.39;;
70740;Laerm;58330;51.888;11.052;2023-02-08T00:23:09;36.11;34.57;37.78;;
70740;Laerm;58330;51.888;11.052;2023-02-08T00:25:35;36.05;34.46;37.28;;
70740;Laerm;58330;51.888;11.052;2023-02-08T00:28:00;36.05;34.16;37.42;;
70740;Laerm;58330;51.888;11.052;2023-02-08T00:30:27;36.08;34.17;37.35;;
70740;Laerm;58330;51.888;11.052;2023-02-08T00:32:52;36.09;34.59;37.44;;
70740;Laerm;58330;51.888;11.052;2023-02-08T00:35:18;36.44;34.60;42.32;;
70740;Laerm;58330;51.888;11.052;2023-02-08T00:37:43;35.99;34.56;37.47;;
70740;Laerm;58330;51.888;11.052;2023-02-08T00:40:09;35.97;34.59;37.24;;
70740;Laerm;58330;51.888;11.052;2023-02-08T00:42:35;35.99;34.68;37.33;;
70740;Laerm;58330;51.888;11.052;2023-02-08T00:45:01;35.91;34.18;37.35;;
70740;Laerm;58330;51.888;11.052;2023-02-08T00:47:27;35.81;34.40;37.42;;
70740;Laerm;58330;51.888;11.052;2023-02-08T00:49:52;35.86;34.34;37.49;;
70740;Laerm;58330;51.888;11.052;2023-02-08T00:52:18;35.88;34.36;37.79;;
70740;Laerm;58330;51.888;11.052;2023-02-08T00:54:44;35.80;34.05;37.17;;
70740;Laerm;58330;51.888;11.052;2023-02-08T00:57:09;35.86;34.41;37.39;;
70740;Laerm;58330;51.888;11.052;2023-02-08T00:59:35;35.87;34.25;37.61;;
70740;Laerm;58330;51.888;11.052;2023-02-08T01:02:00;35.84;34.01;37.20;;
70740;Laerm;58330;51.888;11.052;2023-02-08T01:04:27;35.87;34.50;37.34;;
70740;Laerm;58330;51.888;11.052;2023-02-08T01:06:52;35.87;34.57;37.15;;
70740;Laerm;58330;51.888;11.052;2023-02-08T01:09:18;35.85;34.11;38.05;;
70740;Laerm;58330;51.888;11.052;2023-02-08T01:11:43;35.77;34.29;37.27;;
70740;Laerm;58330;51.888;11.052;2023-02-08T01:14:09;35.74;34.12;37.28;;
70740;Laerm;58330;51.888;11.052;2023-02-08T01:16:35;35.73;34.03;37.03;;
70740;Laerm;58330;51.888;11.052;2023-02-08T01:19:01;35.75;34.19;37.17;;
70740;Laerm;58330;51.888;11.052;2023-02-08T01:21:28;35.73;34.32;37.10;;
70740;Laerm;58330;51.888;11.052;2023-02-08T01:23:54;35.70;34.22;37.05;;
70740;Laerm;58330;51.888;11.052;2023-02-08T01:26:20;35.70;34.11;37.04;;
70740;Laerm;58330;51.888;11.052;2023-02-08T01:28:47;35.68;34.29;37.24;;
70740;Laerm;58330;51.888;11.052;2023-02-08T01:31:13;35.65;34.30;37.12;;
70740;Laerm;58330;51.888;11.052;2023-02-08T01:33:39;35.67;34.09;36.99;;
70740;Laerm;58330;51.888;11.052;2023-02-08T01:36:05;35.67;34.25;36.93;;
70740;Laerm;58330;51.888;11.052;2023-02-08T01:38:32;35.61;34.08;36.86;;
70740;Laerm;58330;51.888;11.052;2023-02-08T01:40:57;35.53;33.95;37.06;;
70740;Laerm;58330;51.888;11.052;2023-02-08T01:43:24;35.54;34.01;37.02;;
70740;Laerm;58330;51.888;11.052;2023-02-08T01:45:50;35.57;34.03;39.30;;
70740;Laerm;58330;51.888;11.052;2023-02-08T01:48:17;35.50;33.79;36.88;;
70740;Laerm;58330;51.888;11.052;2023-02-08T01:50:45;35.59;34.08;37.20;;
70740;Laerm;58330;51.888;11.052;2023-02-08T01:53:14;35.61;34.16;37.37;;
70740;Laerm;58330;51.888;11.052;2023-02-08T01:55:41;35.53;34.10;36.99;;
70740;Laerm;58330;51.888;11.052;2023-02-08T01:58:09;35.57;34.05;37.50;;
70740;Laerm;58330;51.888;11.052;2023-02-08T02:00:35;35.49;33.56;36.86;;
70740;Laerm;58330;51.888;11.052;2023-02-08T02:03:01;35.53;33.79;36.77;;
70740;Laerm;58330;51.888;11.052;2023-02-08T02:05:29;35.67;34.17;37.08;;
70740;Laerm;58330;51.888;11.052;2023-02-08T02:07:56;35.79;34.39;37.35;;
70740;Laerm;58330;51.888;11.052;2023-02-08T02:10:24;35.87;34.47;37.14;;
70740;Laerm;58330;51.888;11.052;2023-02-08T02:12:51;36.01;34.47;37.29;;
70740;Laerm;58330;51.888;11.052;2023-02-08T02:15:16;36.11;34.57;37.94;;
70740;Laerm;58330;51.888;11.052;2023-02-08T02:17:42;36.10;34.68;37.39;;
70740;Laerm;58330;51.888;11.052;2023-02-08T02:20:10;36.19;34.57;37.62;;
70740;Laerm;58330;51.888;11.052;2023-02-08T02:25:28;36.33;34.64;37.94;;
70740;Laerm;58330;51.888;11.052;2023-02-08T02:28:07;36.34;34.87;37.73;;
70740;Laerm;58330;51.888;11.052;2023-02-08T02:30:50;36.31;34.60;37.79;;
70740;Laerm;58330;51.888;11.052;2023-02-08T02:33:39;36.37;34.86;37.72;;
70740;Laerm;58330;51.888;11.052;2023-02-08T02:36:12;36.38;34.93;37.82;;
70740;Laerm;58330;51.888;11.052;2023-02-08T02:38:43;36.44;34.75;37.84;;
70740;Laerm;58330;51.888;11.052;2023-02-08T02:41:16;36.45;34.93;37.76;;
70740;Laerm;58330;51.888;11.052;2023-02-08T02:44:04;36.72;35.19;41.15;;
70740;Laerm;58330;51.888;11.052;2023-02-08T02:46:33;36.58;35.06;38.03;;
70740;Laerm;58330;51.888;11.052;2023-02-08T02:49:06;36.56;35.12;37.99;;
70740;Laerm;58330;51.888;11.052;2023-02-08T02:51:36;36.54;34.90;38.74;;
70740;Laerm;58330;51.888;11.052;2023-02-08T02:54:04;36.52;35.09;38.31;;
70740;Laerm;58330;51.888;11.052;2023-02-08T02:56:32;36.52;34.93;37.98;;
70740;Laerm;58330;51.888;11.052;2023-02-08T02:59:01;36.74;35.19;40.53;;
70740;Laerm;58330;51.888;11.052;2023-02-08T03:01:28;36.67;35.18;38.10;;
70740;Laerm;58330;51.888;11.052;2023-02-08T03:03:54;36.67;35.21;38.17;;
70740;Laerm;58330;51.888;11.052;2023-02-08T03:06:23;36.66;35.23;38.88;;
70740;Laerm;58330;51.888;11.052;2023-02-08T03:08:59;36.65;35.13;38.22;;
70740;Laerm;58330;51.888;11.052;2023-02-08T03:11:29;36.68;35.27;38.19;;
70740;Laerm;58330;51.888;11.052;2023-02-08T03:14:01;36.67;35.23;38.34;;
70740;Laerm;58330;51.888;11.052;2023-02-08T03:16:30;36.67;35.08;38.13;;
70740;Laerm;58330;51.888;11.052;2023-02-08T03:19:00;36.69;35.31;38.11;;
70740;Laerm;58330;51.888;11.052;2023-02-08T03:21:33;36.71;35.05;38.06;;
70740;Laerm;58330;51.888;11.052;2023-02-08T03:24:00;36.72;35.01;38.70;;
70740;Laerm;58330;51.888;11.052;2023-02-08T03:26:28;36.70;35.37;38.18;;
70740;Laerm;58330;51.888;11.052;2023-02-08T03:28:58;36.73;35.09;38.14;;
70740;Laerm;58330;51.888;11.052;2023-02-08T03:31:25;36.71;35.30;38.00;;
70740;Laerm;58330;51.888;11.052;2023-02-08T03:33:55;36.71;35.19;38.21;;
70740;Laerm;58330;51.888;11.052;2023-02-08T03:36:23;36.72;35.39;38.37;;
70740;Laerm;58330;51.888;11.052;2023-02-08T03:38:51;36.71;35.15;38.02;;
70740;Laerm;58330;51.888;11.052;2023-02-08T03:41:21;36.74;35.05;38.33;;
70740;Laerm;58330;51.888;11.052;2023-02-08T03:43:49;36.74;35.36;38.28;;
70740;Laerm;58330;51.888;11.052;2023-02-08T03:46:17;36.85;35.51;38.69;;
70740;Laerm;58330;51.888;11.052;2023-02-08T03:48:45;36.77;35.29;38.19;;
70740;Laerm;58330;51.888;11.052;2023-02-08T03:51:12;36.69;35.06;38.02;;
70740;Laerm;58330;51.888;11.052;2023-02-08T03:53:38;36.74;35.26;40.32;;
70740;Laerm;58330;51.888;11.052;2023-02-08T03:56:07;36.68;35.37;37.93;;
70740;Laerm;58330;51.888;11.052;2023-02-08T03:58:37;36.87;35.11;41.83;;
70740;Laerm;58330;51.888;11.052;2023-02-08T04:01:04;36.66;34.90;38.33;;
70740;Laerm;58330;51.888;11.052;2023-02-08T04:03:33;36.63;35.12;38.13;;
70740;Laerm;58330;51.888;11.052;2023-02-08T04:05:59;36.60;35.18;38.11;;
70740;Laerm;58330;51.888;11.052;2023-02-08T04:08:25;36.55;35.18;38.15;;
70740;Laerm;58330;51.888;11.052;2023-02-08T04:10:51;36.54;35.00;38.13;;
70740;Laerm;58330;51.888;11.052;2023-02-08T04:13:17;36.52;35.06;37.96;;
70740;Laerm;58330;51.888;11.052;2023-02-08T04:15:42;36.63;35.04;41.45;;
70740;Laerm;58330;51.888;11.052;2023-02-08T04:18:08;36.42;34.84;37.88;;
70740;Laerm;58330;51.888;11.052;2023-02-08T04:20:34;36.32;34.83;37.86;;
70740;Laerm;58330;51.888;11.052;2023-02-08T04:23:00;36.37;34.68;39.23;;
70740;Laerm;58330;51.888;11.052;2023-02-08T04:25:25;36.29;34.71;37.74;;
70740;Laerm;58330;51.888;11.052;2023-02-08T04:27:51;37.05;34.78;53.47;;
70740;Laerm;58330;51.888;11.052;2023-02-08T04:30:17;36.17;34.74;37.71;;
70740;Laerm;58330;51.888;11.052;2023-02-08T04:32:43;36.56;34.82;43.40;;
70740;Laerm;58330;51.888;11.052;2023-02-08T04:35:08;36.20;34.68;37.79;;
70740;Laerm;58330;51.888;11.052;2023-02-08T04:37:34;36.23;34.33;38.38;;
70740;Laerm;58330;51.888;11.052;2023-02-08T04:39:59;36.85;34.50;44.14;;
70740;Laerm;58330;51.888;11.052;2023-02-08T04:42:25;36.55;34.55;42.47;;
70740;Laerm;58330;51.888;11.052;2023-02-08T04:44:51;36.19;34.76;37.65;;
70740;Laerm;58330;51.888;11.052;2023-02-08T04:47:17;36.12;34.61;40.33;;
70740;Laerm;58330;51.888;11.052;2023-02-08T04:49:42;36.06;34.52;37.28;;
70740;Laerm;58330;51.888;11.052;2023-02-08T04:52:08;36.33;34.63;41.46;;
70740;Laerm;58330;51.888;11.052;2023-02-08T04:54:33;36.10;34.71;38.26;;
70740;Laerm;58330;51.888;11.052;2023-02-08T04:56:59;36.04;34.73;38.57;;
70740;Laerm;58330;51.888;11.052;2023-02-08T04:59:25;35.97;34.48;37.63;;
70740;Laerm;58330;51.888;11.052;2023-02-08T05:01:50;36.17;34.56;37.73;;
70740;Laerm;58330;51.888;11.052;2023-02-08T05:04:16;36.16;34.22;41.28;;
70740;Laerm;58330;51.888;11.052;2023-02-08T05:06:42;36.02;34.34;37.84;;
70740;Laerm;58330;51.888;11.052;2023-02-08T05:09:08;36.04;34.48;39.55;;
70740;Laerm;58330;51.888;11.052;2023-02-08T05:11:34;36.05;34.41;38.04;;
70740;Laerm;58330;51.888;11.052;2023-02-08T05:14:00;35.87;34.50;37.54;;
70740;Laerm;58330;51.888;11.052;2023-02-08T05:16:25;36.36;34.50;41.73;;
70740;Laerm;58330;51.888;11.052;2023-02-08T05:18:51;36.13;33.76;39.75;;
70740;Laerm;58330;51.888;11.052;2023-02-08T05:21:17;36.31;34.44;43.21;;
70740;Laerm;58330;51.888;11.052;2023-02-08T05:23:43;36.25;34.41;42.26;;
70740;Laerm;58330;51.888;11.052;2023-02-08T05:26:09;36.43;34.35;40.94;;
70740;Laerm;58330;51.888;11.052;2023-02-08T05:28:35;36.46;34.43;42.57;;
70740;Laerm;58330;51.888;11.052;2023-02-08T05:31:06;36.11;34.36;41.41;;
70740;Laerm;58330;51.888;11.052;2023-02-08T05:33:32;35.91;34.31;39.24;;
70740;Laerm;58330;51.888;11.052;2023-02-08T05:35:57;37.45;34.41;44.26;;
70740;Laerm;58330;51.888;11.052;2023-02-08T05:38:24;36.27;34.12;43.20;;
70740;Laerm;58330;51.888;11.052;2023-02-08T05:40:49;36.11;34.36;40.42;;
70740;Laerm;58330;51.888;11.052;2023-02-08T05:43:15;36.44;34.38;43.70;;
70740;Laerm;58330;51.888;11.052;2023-02-08T05:45:40;36.25;34.24;42.48;;
70740;Laerm;58330;51.888;11.052;2023-02-08T05:48:06;35.86;34.19;38.72;;
70740;Laerm;58330;51.888;11.052;2023-02-08T05:50:31;35.98;34.30;40.92;;
70740;Laerm;58330;51.888;11.052;2023-02-08T05:52:57;36.45;34.24;43.27;;
70740;Laerm;58330;51.888;11.052;2023-02-08T05:55:23;36.59;34.28;41.38;;
70740;Laerm;58330;51.888;11.052;2023-02-08T05:57:51;35.91;34.42;37.77;;
70740;Laerm;58330;51.888;11.052;2023-02-08T06:00:16;36.06;34.16;42.49;;
70740;Laerm;58330;51.888;11.052;2023-02-08T06:02:44;35.67;34.14;37.28;;
70740;Laerm;58330;51.888;11.052;2023-02-08T06:05:09;36.40;33.99;44.19;;
70740;Laerm;58330;51.888;11.052;2023-02-08T06:07:35;35.97;33.82;45.80;;
70740;Laerm;58330;51.888;11.052;2023-02-08T06:10:00;36.07;34.09;42.13;;
70740;Laerm;58330;51.888;11.052;2023-02-08T06:12:27;35.99;34.15;42.41;;
70740;Laerm;58330;51.888;11.052;2023-02-08T06:14:52;36.05;34.21;41.55;;
70740;Laerm;58330;51.888;11.052;2023-02-08T06:17:18;35.73;34.09;37.55;;
70740;Laerm;58330;51.888;11.052;2023-02-08T06:19:43;35.66;34.02;37.54;;
70740;Laerm;58330;51.888;11.052;2023-02-08T06:22:09;36.88;34.08;49.37;;
70740;Laerm;58330;51.888;11.052;2023-02-08T06:24:35;36.13;34.04;42.52;;
70740;Laerm;58330;51.888;11.052;2023-02-08T06:27:00;36.36;34.15;43.22;;
70740;Laerm;58330;51.888;11.052;2023-02-08T06:29:27;36.48;34.22;41.16;;
70740;Laerm;58330;51.888;11.052;2023-02-08T06:31:52;36.30;34.03;41.85;;
70740;Laerm;58330;51.888;11.052;2023-02-08T06:34:18;37.69;34.27;48.21;;
70740;Laerm;58330;51.888;11.052;2023-02-08T06:36:43;35.97;34.14;41.12;;
70740;Laerm;58330;51.888;11.052;2023-02-08T06:39:09;35.83;34.42;37.66;;
70740;Laerm;58330;51.888;11.052;2023-02-08T06:41:35;36.03;34.30;42.37;;
70740;Laerm;58330;51.888;11.052;2023-02-08T06:44:01;36.29;34.27;42.88;;
70740;Laerm;58330;51.888;11.052;2023-02-08T06:46:27;36.49;34.31;42.94;;
70740;Laerm;58330;51.888;11.052;2023-02-08T06:48:52;36.12;34.32;40.62;;
70740;Laerm;58330;51.888;11.052;2023-02-08T06:51:19;36.52;34.34;41.40;;
70740;Laerm;58330;51.888;11.052;2023-02-08T06:53:44;36.16;34.34;41.66;;
70740;Laerm;58330;51.888;11.052;2023-02-08T06:56:10;37.10;34.39;49.03;;
70740;Laerm;58330;51.888;11.052;2023-02-08T06:58:36;36.48;34.24;41.07;;
70740;Laerm;58330;51.888;11.052;2023-02-08T07:01:02;36.26;34.44;42.57;;
70740;Laerm;58330;51.888;11.052;2023-02-08T07:03:28;36.13;34.41;38.97;;
70740;Laerm;58330;51.888;11.052;2023-02-08T07:05:53;36.37;34.43;41.46;;
70740;Laerm;58330;51.888;11.052;2023-02-08T07:08:19;37.28;34.54;47.02;;
70740;Laerm;58330;51.888;11.052;2023-02-08T07:10:45;36.27;34.90;39.40;;
70740;Laerm;58330;51.888;11.052;2023-02-08T07:13:10;36.47;34.78;37.98;;
70740;Laerm;58330;51.888;11.052;2023-02-08T07:15:36;37.12;35.28;40.69;;
70740;Laerm;58330;51.888;11.052;2023-02-08T07:18:02;39.65;35.94;61.56;;
70740;Laerm;58330;51.888;11.052;2023-02-08T07:20:28;38.86;36.49;45.35;;
70740;Laerm;58330;51.888;11.052;2023-02-08T07:22:53;38.10;36.30;40.53;;
70740;Laerm;58330;51.888;11.052;2023-02-08T07:25:19;39.88;36.25;50.19;;
70740;Laerm;58330;51.888;11.052;2023-02-08T07:27:45;37.60;35.84;45.78;;
70740;Laerm;58330;51.888;11.052;2023-02-08T07:30:11;37.25;35.69;41.02;;
70740;Laerm;58330;51.888;11.052;2023-02-08T07:32:36;36.46;34.81;41.09;;
70740;Laerm;58330;51.888;11.052;2023-02-08T07:35:02;36.33;34.25;41.01;;
70740;Laerm;58330;51.888;11.052;2023-02-08T07:37:28;35.80;33.88;41.79;;
70740;Laerm;58330;51.888;11.052;2023-02-08T07:39:55;35.96;33.83;40.04;;
70740;Laerm;58330;51.888;11.052;2023-02-08T07:42:21;36.21;34.61;41.02;;
70740;Laerm;58330;51.888;11.052;2023-02-08T07:44:46;36.51;34.72;43.14;;
70740;Laerm;58330;51.888;11.052;2023-02-08T07:47:13;36.62;34.09;44.29;;
70740;Laerm;58330;51.888;11.052;2023-02-08T07:49:38;36.46;34.14;42.14;;
70740;Laerm;58330;51.888;11.052;2023-02-08T07:52:04;36.42;33.82;45.07;;
70740;Laerm;58330;51.888;11.052;2023-02-08T07:54:30;35.57;33.27;40.17;;
70740;Laerm;58330;51.888;11.052;2023-02-08T07:56:56;35.22;32.84;41.58;;
70740;Laerm;58330;51.888;11.052;2023-02-08T07:59:22;34.98;33.05;38.83;;
70740;Laerm;58330;51.888;11.052;2023-02-08T08:01:47;35.61;33.16;43.91;;
70740;Laerm;58330;51.888;11.052;2023-02-08T08:04:13;36.06;34.06;43.14;;
70740;Laerm;58330;51.888;11.052;2023-02-08T08:06:38;37.21;34.52;44.12;;
70740;Laerm;58330;51.888;11.052;2023-02-08T08:09:04;35.95;33.81;42.12;;
70740;Laerm;58330;51.888;11.052;2023-02-08T08:11:30;35.55;33.41;41.62;;
70740;Laerm;58330;51.888;11.052;2023-02-08T08:13:56;35.18;32.86;40.48;;
70740;Laerm;58330;51.888;11.052;2023-02-08T08:16:22;36.43;32.64;44.83;;
70740;Laerm;58330;51.888;11.052;2023-02-08T08:18:47;35.67;32.83;43.49;;
70740;Laerm;58330;51.888;11.052;2023-02-08T08:21:14;34.44;32.38;41.03;;
70740;Laerm;58330;51.888;11.052;2023-02-08T08:23:40;34.36;32.20;39.31;;
70740;Laerm;58330;51.888;11.052;2023-02-08T08:26:07;35.68;32.24;41.68;;
70740;Laerm;58330;51.888;11.052;2023-02-08T08:28:33;34.66;32.24;41.87;;
70740;Laerm;58330;51.888;11.052;2023-02-08T08:30:59;34.96;32.11;42.51;;
70740;Laerm;58330;51.888;11.052;2023-02-08T08:33:25;35.20;32.15;44.93;;
70740;Laerm;58330;51.888;11.052;2023-02-08T08:35:50;35.65;32.05;45.73;;
70740;Laerm;58330;51.888;11.052;2023-02-08T08:38:16;34.89;32.11;41.11;;
70740;Laerm;58330;51.888;11.052;2023-02-08T08:40:41;36.22;32.60;48.28;;
70740;Laerm;58330;51.888;11.052;2023-02-08T08:43:07;35.10;33.00;38.64;;
70740;Laerm;58330;51.888;11.052;2023-02-08T08:45:33;37.34;32.61;48.88;;
70740;Laerm;58330;51.888;11.052;2023-02-08T08:48:00;36.29;32.49;47.12;;
70740;Laerm;58330;51.888;11.052;2023-02-08T08:50:26;36.09;33.02;45.17;;
70740;Laerm;58330;51.888;11.052;2023-02-08T08:52:51;35.21;32.16;44.03;;
70740;Laerm;58330;51.888;11.052;2023-02-08T08:55:17;37.55;32.35;47.61;;
70740;Laerm;58330;51.888;11.052;2023-02-08T08:57:42;35.88;32.86;42.63;;
70740;Laerm;58330;51.888;11.052;2023-02-08T09:00:09;35.90;32.53;45.18;;
70740;Laerm;58330;51.888;11.052;2023-02-08T09:02:35;36.26;31.99;46.70;;
70740;Laerm;58330;51.888;11.052;2023-02-08T09:05:01;35.92;32.39;46.93;;
70740;Laerm;58330;51.888;11.052;2023-02-08T09:07:28;35.17;32.41;40.14;;
70740;Laerm;58330;51.888;11.052;2023-02-08T09:09:53;36.07;32.59;47.19;;
70740;Laerm;58330;51.888;11.052;2023-02-08T09:12:19;38.32;33.17;54.39;;
70740;Laerm;58330;51.888;11.052;2023-02-08T09:14:44;37.71;32.53;49.83;;
70740;Laerm;58330;51.888;11.052;2023-02-08T09:17:10;34.85;32.18;41.83;;
70740;Laerm;58330;51.888;11.052;2023-02-08T09:19:36;37.22;32.19;46.57;;
70740;Laerm;58330;51.888;11.052;2023-02-08T09:22:04;38.12;32.57;54.44;;
70740;Laerm;58330;51.888;11.052;2023-02-08T09:24:30;35.94;32.05;44.74;;
70740;Laerm;58330;51.888;11.052;2023-02-08T09:26:55;35.39;31.81;42.50;;
70740;Laerm;58330;51.888;11.052;2023-02-08T09:29:21;38.59;32.23;51.44;;
70740;Laerm;58330;51.888;11.052;2023-02-08T09:31:46;34.83;31.82;41.71;;
70740;Laerm;58330;51.888;11.052;2023-02-08T09:34:12;35.72;32.40;44.10;;
70740;Laerm;58330;51.888;11.052;2023-02-08T09:36:38;35.06;32.02;42.69;;
70740;Laerm;58330;51.888;11.052;2023-02-08T09:39:05;35.27;32.08;43.51;;
70740;Laerm;58330;51.888;11.052;2023-02-08T09:41:34;35.20;31.52;56.23;;
70740;Laerm;58330;51.888;11.052;2023-02-08T09:44:06;36.75;32.55;44.43;;
70740;Laerm;58330;51.888;11.052;2023-02-08T09:46:34;35.63;32.17;45.44;;
70740;Laerm;58330;51.888;11.052;2023-02-08T09:49:02;36.25;31.93;46.82;;
70740;Laerm;58330;51.888;11.052;2023-02-08T09:51:32;36.65;32.10;46.76;;
70740;Laerm;58330;51.888;11.052;2023-02-08T09:54:02;37.37;31.67;49.71;;
70740;Laerm;58330;51.888;11.052;2023-02-08T09:56:33;35.30;32.04;43.35;;
70740;Laerm;58330;51.888;11.052;2023-02-08T09:59:01;35.33;32.12;44.00;;
70740;Laerm;58330;51.888;11.052;2023-02-08T10:01:29;35.50;31.87;42.69;;
70740;Laerm;58330;51.888;11.052;2023-02-08T10:03:56;36.00;32.25;47.50;;
70740;Laerm;58330;51.888;11.052;2023-02-08T10:06:23;36.72;32.32;47.55;;
70740;Laerm;58330;51.888;11.052;2023-02-08T10:08:50;35.33;31.52;40.20;;
70740;Laerm;58330;51.888;11.052;2023-02-08T10:11:38;36.32;32.63;48.22;;
70740;Laerm;58330;51.888;11.052;2023-02-08T10:14:12;36.11;32.60;44.93;;
70740;Laerm;58330;51.888;11.052;2023-02-08T10:16:45;35.92;32.32;47.13;;
70740;Laerm;58330;51.888;11.052;2023-02-08T10:19:13;38.96;32.01;51.60;;
70740;Laerm;58330;51.888;11.052;2023-02-08T10:21:49;35.30;31.92;43.81;;
70740;Laerm;58330;51.888;11.052;2023-02-08T10:24:22;34.29;31.54;43.82;;
70740;Laerm;58330;51.888;11.052;2023-02-08T10:26:53;35.85;31.96;47.55;;
70740;Laerm;58330;51.888;11.052;2023-02-08T10:29:25;35.45;32.52;41.67;;
70740;Laerm;58330;51.888;11.052;2023-02-08T10:32:01;38.29;33.21;50.47;;
70740;Laerm;58330;51.888;11.052;2023-02-08T10:34:34;36.03;32.39;45.20;;
70740;Laerm;58330;51.888;11.052;2023-02-08T10:37:03;36.55;32.21;44.75;;
70740;Laerm;58330;51.888;11.052;2023-02-08T10:39:34;36.75;31.77;45.77;;
70740;Laerm;58330;51.888;11.052;2023-02-08T10:42:01;38.27;33.38;48.74;;
70740;Laerm;58330;51.888;11.052;2023-02-08T10:44:28;34.98;31.89;41.93;;
70740;Laerm;58330;51.888;11.052;2023-02-08T10:46:55;35.88;32.65;43.52;;
70740;Laerm;58330;51.888;11.052;2023-02-08T10:49:29;36.93;32.60;49.71;;
70740;Laerm;58330;51.888;11.052;2023-02-08T10:51:59;35.99;32.59;44.11;;
70740;Laerm;58330;51.888;11.052;2023-02-08T10:54:24;35.72;32.18;50.55;;
70740;Laerm;58330;51.888;11.052;2023-02-08T10:56:51;36.36;33.09;45.10;;
70740;Laerm;58330;51.888;11.052;2023-02-08T10:59:23;38.33;33.03;47.56;;
70740;Laerm;58330;51.888;11.052;2023-02-08T11:01:50;37.50;32.18;48.18;;
70740;Laerm;58330;51.888;11.052;2023-02-08T11:04:17;36.35;32.04;44.38;;
70740;Laerm;58330;51.888;11.052;2023-02-08T11:06:44;35.43;31.83;47.75;;
70740;Laerm;58330;51.888;11.052;2023-02-08T11:09:18;35.89;31.21;46.73;;
70740;Laerm;58330;51.888;11.052;2023-02-08T11:11:44;36.77;32.04;44.88;;
70740;Laerm;58330;51.888;11.052;2023-02-08T11:14:13;37.21;32.08;48.24;;
70740;Laerm;58330;51.888;11.052;2023-02-08T11:16:41;34.50;31.82;43.94;;
70740;Laerm;58330;51.888;11.052;2023-02-08T11:19:17;37.71;32.23;50.45;;
70740;Laerm;58330;51.888;11.052;2023-02-08T11:21:47;36.79;31.94;50.23;;
70740;Laerm;58330;51.888;11.052;2023-02-08T11:24:21;36.94;31.88;44.68;;
70740;Laerm;58330;51.888;11.052;2023-02-08T11:26:47;39.79;33.05;51.30;;
70740;Laerm;58330;51.888;11.052;2023-02-08T11:29:15;40.34;32.05;55.46;;
70740;Laerm;58330;51.888;11.052;2023-02-08T11:31:42;39.78;32.24;55.19;;
70740;Laerm;58330;51.888;11.052;2023-02-08T11:34:21;34.77;32.24;40.30;;
70740;Laerm;58330;51.888;11.052;2023-02-08T11:36:48;37.29;32.21;49.07;;
70740;Laerm;58330;51.888;11.052;2023-02-08T11:39:14;35.69;32.32;44.57;;
70740;Laerm;58330;51.888;11.052;2023-02-08T11:41:42;34.82;32.24;42.80;;
70740;Laerm;58330;51.888;11.052;2023-02-08T11:44:12;35.79;31.99;45.24;;
70740;Laerm;58330;51.888;11.052;2023-02-08T11:46:43;46.85;33.29;67.44;;
70740;Laerm;58330;51.888;11.052;2023-02-08T11:49:15;37.74;31.74;50.37;;
70740;Laerm;58330;51.888;11.052;2023-02-08T11:51:44;37.01;32.18;47.43;;
70740;Laerm;58330;51.888;11.052;2023-02-08T11:54:14;35.31;32.03;42.62;;
70740;Laerm;58330;51.888;11.052;2023-02-08T11:56:59;34.48;32.18;39.85;;
70740;Laerm;58330;51.888;11.052;2023-02-08T11:59:25;37.14;32.04;54.53;;
70740;Laerm;58330;51.888;11.052;2023-02-08T12:01:53;36.67;32.37;46.82;;
70740;Laerm;58330;51.888;11.052;2023-02-08T12:04:19;34.51;32.14;43.28;;
70740;Laerm;58330;51.888;11.052;2023-02-08T12:06:54;37.19;32.32;49.44;;
70740;Laerm;58330;51.888;11.052;2023-02-08T12:09:29;35.72;32.31;48.08;;
70740;Laerm;58330;51.888;11.052;2023-02-08T12:11:57;35.96;31.94;47.43;;
70740;Laerm;58330;51.888;11.052;2023-02-08T12:14:31;35.09;32.42;42.27;;
70740;Laerm;58330;51.888;11.052;2023-02-08T12:17:15;35.75;32.35;45.37;;
70740;Laerm;58330;51.888;11.052;2023-02-08T12:19:58;34.88;32.24;41.95;;
70740;Laerm;58330;51.888;11.052;2023-02-08T12:22:27;36.21;32.21;49.43;;
70740;Laerm;58330;51.888;11.052;2023-02-08T12:24:55;37.43;32.69;52.08;;
70740;Laerm;58330;51.888;11.052;2023-02-08T12:27:27;37.18;32.51;59.19;;
70740;Laerm;58330;51.888;11.052;2023-02-08T12:29:58;34.79;32.18;44.27;;
70740;Laerm;58330;51.888;11.052;2023-02-08T12:32:32;37.09;32.86;46.48;;
70740;Laerm;58330;51.888;11.052;2023-02-08T12:35:09;37.57;32.46;46.55;;
70740;Laerm;58330;51.888;11.052;2023-02-08T12:37:43;36.26;32.23;46.12;;
70740;Laerm;58330;51.888;11.052;2023-02-08T12:40:30;34.27;31.82;42.04;;
70740;Laerm;58330;51.888;11.052;2023-02-08T12:43:16;36.31;32.49;45.77;;
70740;Laerm;58330;51.888;11.052;2023-02-08T12:45:50;39.06;32.61;53.64;;
70740;Laerm;58330;51.888;11.052;2023-02-08T12:48:31;37.95;32.42;47.84;;
70740;Laerm;58330;51.888;11.052;2023-02-08T12:51:01;34.84;32.21;43.92;;
70740;Laerm;58330;51.888;11.052;2023-02-08T12:53:29;37.00;32.19;48.10;;
70740;Laerm;58330;51.888;11.052;2023-02-08T12:55:57;35.96;32.06;45.69;;
70740;Laerm;58330;51.888;11.052;2023-02-08T12:58:25;36.17;32.44;48.20;;
70740;Laerm;58330;51.888;11.052;2023-02-08T13:00:52;41.09;32.57;54.82;;
70740;Laerm;58330;51.888;11.052;2023-02-08T13:03:24;35.02;32.51;44.12;;
70740;Laerm;58330;51.888;11.052;2023-02-08T13:05:52;35.78;32.34;46.01;;
70740;Laerm;58330;51.888;11.052;2023-02-08T13:08:22;34.95;32.33;43.34;;
70740;Laerm;58330;51.888;11.052;2023-02-08T13:10:49;36.19;32.61;44.89;;
70740;Laerm;58330;51.888;11.052;2023-02-08T13:13:18;36.81;32.43;50.43;;
70740;Laerm;58330;51.888;11.052;2023-02-08T13:15:45;35.20;32.44;43.99;;
70740;Laerm;58330;51.888;11.052;2023-02-08T13:18:14;35.02;32.26;43.75;;
70740;Laerm;58330;51.888;11.052;2023-02-08T13:20:42;35.20;32.58;42.62;;
70740;Laerm;58330;51.888;11.052;2023-02-08T13:23:12;38.10;32.25;48.95;;
70740;Laerm;58330;51.888;11.052;2023-02-08T13:25:38;34.82;32.44;42.58;;
70740;Laerm;58330;51.888;11.052;2023-02-08T13:28:05;37.42;32.64;46.32;;
70740;Laerm;58330;51.888;11.052;2023-02-08T13:30:33;36.49;32.77;45.80;;
70740;Laerm;58330;51.888;11.052;2023-02-08T13:33:00;35.72;32.41;43.53;;
70740;Laerm;58330;51.888;11.052;2023-02-08T13:35:29;36.31;32.78;53.49;;
70740;Laerm;58330;51.888;11.052;2023-02-08T13:37:57;35.57;32.46;51.92;;